createdAt,value
2018-09-14T00:01:33.157Z,22.97
2018-09-14T00:04:00.603Z,22.95
2018-09-14T00:06:28.233Z,22.95
2018-09-14T00:08:54.867Z,23.00
2018-09-14T00:11:24.480Z,22.99
2018-09-14T00:13:53.337Z,22.97
2018-09-14T00:16:20.905Z,22.98
2018-09-14T00:18:48.521Z,23.00
2018-09-14T00:21:15.196Z,22.97
2018-09-14T00:23:41.869Z,22.95
2018-09-14T00:26:08.529Z,22.97
2018-09-14T00:28:36.121Z,23.00
2018-09-14T00:31:03.741Z,22.96
2018-09-14T00:33:30.624Z,22.94
2018-09-14T00:35:58.192Z,22.95
2018-09-14T00:38:25.925Z,22.94
2018-09-14T00:40:53.911Z,22.94
2018-09-14T00:43:20.554Z,22.94
2018-09-14T00:45:47.253Z,22.98
2018-09-14T00:48:14.756Z,22.95
2018-09-14T00:50:42.338Z,22.96
2018-09-14T00:53:09.005Z,22.95
2018-09-14T00:55:35.760Z,22.96
2018-09-14T00:58:02.397Z,22.96
2018-09-14T01:00:29.064Z,22.93
2018-09-14T01:02:56.563Z,22.97
2018-09-14T01:05:24.333Z,22.95
2018-09-14T01:07:52.809Z,22.98
2018-09-14T01:10:19.433Z,22.97
2018-09-14T01:12:46.077Z,22.97
2018-09-14T01:15:12.767Z,22.97
2018-09-14T01:17:39.392Z,23.00
2018-09-14T01:20:06.100Z,23.00
2018-09-14T01:22:32.720Z,23.00
2018-09-14T01:24:59.376Z,23.02
2018-09-14T01:27:26.033Z,23.03
2018-09-14T01:29:53.447Z,22.99
2018-09-14T01:32:20.146Z,22.98
2018-09-14T01:34:46.787Z,22.96
2018-09-14T01:37:13.448Z,22.96
2018-09-14T01:39:40.081Z,22.94
2018-09-14T01:42:06.710Z,22.95
2018-09-14T01:44:34.365Z,22.97
2018-09-14T01:47:02.044Z,22.94
2018-09-14T01:49:29.605Z,22.94
2018-09-14T01:51:56.245Z,22.95
2018-09-14T01:54:25.196Z,22.97
2018-09-14T01:56:53.479Z,22.98
2018-09-14T01:59:20.124Z,22.95
2018-09-14T02:01:47.578Z,22.96
2018-09-14T02:04:15.237Z,22.95
2018-09-14T02:06:41.916Z,22.97
2018-09-14T02:09:09.356Z,22.97
2018-09-14T02:11:36.868Z,22.96
2018-09-14T02:14:04.532Z,23.00
2018-09-14T02:16:32.220Z,22.95
2018-09-14T02:18:58.848Z,22.93
2018-09-14T02:21:25.545Z,22.95
2018-09-14T02:23:52.983Z,22.96
2018-09-14T02:26:20.418Z,22.98
2018-09-14T02:28:47.816Z,22.98
2018-09-14T02:31:15.481Z,22.94
2018-09-14T02:33:42.568Z,22.95
2018-09-14T02:36:09.269Z,22.96
2018-09-14T02:38:35.900Z,22.96
2018-09-14T02:41:03.365Z,22.93
2018-09-14T02:43:30.001Z,22.97
2018-09-14T02:45:58.596Z,22.97
2018-09-14T02:48:26.269Z,22.96
2018-09-14T02:50:56.217Z,22.94
2018-09-14T02:53:25.198Z,22.90
2018-09-14T02:55:54.206Z,22.96
2018-09-14T02:58:23.102Z,22.94
2018-09-14T03:00:50.933Z,22.93
2018-09-14T03:03:18.628Z,22.95
2018-09-14T03:05:45.260Z,22.95
2018-09-14T03:08:12.777Z,22.97
2018-09-14T03:10:39.428Z,22.95
2018-09-14T03:13:07.019Z,22.99
2018-09-14T03:15:33.730Z,22.96
2018-09-14T03:18:00.384Z,22.94
2018-09-14T03:20:27.906Z,22.98
2018-09-14T03:22:55.558Z,22.94
2018-09-14T03:25:23.451Z,22.93
2018-09-14T03:27:51.004Z,22.93
2018-09-14T03:30:17.735Z,22.93
2018-09-14T03:32:45.217Z,22.94
2018-09-14T03:35:12.728Z,22.94
2018-09-14T03:37:39.357Z,22.94
2018-09-14T03:40:06.043Z,22.95
2018-09-14T03:42:33.620Z,22.98
2018-09-14T03:45:01.099Z,22.95
2018-09-14T03:47:28.632Z,22.95
2018-09-14T03:49:56.201Z,22.96
2018-09-14T03:52:23.545Z,22.96
2018-09-14T03:54:51.016Z,23.00
2018-09-14T03:57:18.567Z,22.95
2018-09-14T03:59:46.090Z,22.94
2018-09-14T04:02:13.649Z,22.95
2018-09-14T04:04:41.074Z,22.96
2018-09-14T04:07:08.684Z,22.96
2018-09-14T04:09:35.403Z,22.96
2018-09-14T04:12:03.011Z,22.97
2018-09-14T04:14:30.548Z,22.94
2018-09-14T04:16:58.089Z,22.93
2018-09-14T04:19:25.800Z,22.93
2018-09-14T04:21:54.495Z,22.93
2018-09-14T04:24:21.201Z,22.94
2018-09-14T04:26:48.682Z,22.92
2018-09-14T04:29:15.399Z,22.95
2018-09-14T04:31:42.036Z,22.94
2018-09-14T04:34:09.465Z,22.96
2018-09-14T04:36:37.049Z,22.91
2018-09-14T04:39:06.265Z,22.94
2018-09-14T04:41:33.917Z,22.90
2018-09-14T04:44:00.572Z,22.90
2018-09-14T04:46:28.197Z,22.89
2018-09-14T04:48:55.900Z,22.90
2018-09-14T04:51:24.485Z,22.89
2018-09-14T04:53:53.043Z,22.93
2018-09-14T04:56:20.640Z,22.86
2018-09-14T04:58:48.347Z,22.90
2018-09-14T05:01:14.977Z,22.96
2018-09-14T05:03:41.660Z,23.00
2018-09-14T05:06:08.473Z,23.11
2018-09-14T05:08:35.100Z,23.15
2018-09-14T05:11:01.740Z,23.15
2018-09-14T05:13:28.388Z,23.15
2018-09-14T05:15:58.698Z,23.15
2018-09-14T05:18:25.436Z,23.16
2018-09-14T05:20:53.143Z,23.19
2018-09-14T05:23:20.869Z,23.24
2018-09-14T05:25:48.535Z,23.24
2018-09-14T05:28:16.311Z,23.23
2018-09-14T05:30:43.832Z,23.22
2018-09-14T05:33:10.493Z,23.20
2018-09-14T05:35:38.150Z,23.20
2018-09-14T05:38:05.870Z,23.22
2018-09-14T05:40:33.558Z,23.24
2018-09-14T05:43:00.229Z,23.24
2018-09-14T05:45:26.876Z,23.24
2018-09-14T05:47:54.342Z,23.22
2018-09-14T05:50:21.004Z,23.20
2018-09-14T05:52:48.604Z,23.18
2018-09-14T05:55:15.280Z,23.22
2018-09-14T05:57:41.928Z,23.24
2018-09-14T06:00:08.578Z,23.19
2018-09-14T06:02:35.219Z,23.12
2018-09-14T06:05:02.937Z,23.18
2018-09-14T06:07:29.663Z,23.17
2018-09-14T06:09:56.348Z,23.20
2018-09-14T06:12:25.231Z,23.19
2018-09-14T06:14:52.550Z,23.22
2018-09-14T06:17:19.362Z,23.23
2018-09-14T06:19:46.009Z,23.21
2018-09-14T06:22:12.653Z,23.24
2018-09-14T06:24:39.328Z,23.22
2018-09-14T06:27:06.856Z,23.20
2018-09-14T06:29:34.501Z,23.22
2018-09-14T06:32:01.181Z,23.23
2018-09-14T06:34:27.832Z,23.24
2018-09-14T06:36:55.125Z,23.22
2018-09-14T06:39:23.520Z,23.23
2018-09-14T06:41:50.185Z,23.23
2018-09-14T06:44:23.174Z,23.24
2018-09-14T06:46:49.909Z,23.17
2018-09-14T06:49:18.509Z,23.23
2018-09-14T06:51:46.540Z,23.22
2018-09-14T06:54:14.313Z,23.24
2018-09-14T06:56:41.148Z,23.27
2018-09-14T06:59:08.035Z,23.27
2018-09-14T07:01:34.716Z,23.24
2018-09-14T07:04:01.430Z,23.19
2018-09-14T07:06:29.270Z,23.17
2018-09-14T07:08:58.161Z,23.16
2018-09-14T07:11:24.882Z,23.14
2018-09-14T07:13:54.842Z,23.22
2018-09-14T07:16:21.552Z,23.12
2018-09-14T07:18:48.339Z,23.13
2018-09-14T07:21:15.876Z,23.19
2018-09-14T07:23:42.588Z,23.23
2018-09-14T07:26:09.981Z,23.22
2018-09-14T07:28:37.551Z,23.28
2018-09-14T07:31:05.299Z,23.24
2018-09-14T07:33:31.977Z,23.25
2018-09-14T07:35:59.626Z,23.19
2018-09-14T07:38:26.332Z,23.18
2018-09-14T07:40:55.844Z,23.25
2018-09-14T07:43:26.373Z,23.32
2018-09-14T07:45:54.483Z,23.31
2018-09-14T07:48:21.215Z,23.31
2018-09-14T07:50:47.840Z,23.27
2018-09-14T07:53:15.325Z,23.27
2018-09-14T07:55:42.816Z,23.33
2018-09-14T07:58:10.408Z,23.33
2018-09-14T08:00:38.084Z,23.30
2018-09-14T08:03:04.781Z,23.34
2018-09-14T08:05:32.373Z,23.36
2018-09-14T08:07:59.037Z,23.32
2018-09-14T08:10:26.736Z,23.36
2018-09-14T08:12:54.929Z,23.38
2018-09-14T08:15:21.700Z,23.38
2018-09-14T08:17:48.564Z,23.40
2018-09-14T08:20:15.328Z,23.39
2018-09-14T08:22:41.953Z,23.38
2018-09-14T08:25:08.616Z,23.40
2018-09-14T08:27:35.328Z,23.37
2018-09-14T08:30:01.965Z,23.37
2018-09-14T08:32:28.677Z,23.36
2018-09-14T08:34:55.332Z,23.37
2018-09-14T08:37:23.152Z,23.37
2018-09-14T08:39:50.024Z,23.34
2018-09-14T08:42:17.584Z,23.35
2018-09-14T08:44:44.268Z,23.35
2018-09-14T08:47:10.915Z,23.36
2018-09-14T08:49:37.609Z,23.36
2018-09-14T08:52:04.401Z,23.37
2018-09-14T08:54:31.083Z,23.35
2018-09-14T08:56:57.853Z,23.35
2018-09-14T08:59:24.568Z,23.32
2018-09-14T09:01:53.717Z,23.32
2018-09-14T09:04:20.548Z,23.27
2018-09-14T09:06:47.206Z,23.24
2018-09-14T09:09:14.783Z,23.29
2018-09-14T09:11:42.409Z,23.29
2018-09-14T09:14:09.064Z,23.28
2018-09-14T09:16:37.309Z,23.25
2018-09-14T09:19:04.877Z,23.28
2018-09-14T09:21:31.525Z,23.31
2018-09-14T09:23:58.749Z,23.27
2018-09-14T09:26:26.446Z,23.28
2018-09-14T09:28:55.710Z,23.27
2018-09-14T09:31:24.033Z,23.27
2018-09-14T09:33:51.093Z,23.27
2018-09-14T09:36:17.800Z,23.26
2018-09-14T09:38:44.485Z,23.26
2018-09-14T09:41:11.447Z,23.24
2018-09-14T09:43:38.340Z,23.28
2018-09-14T09:46:04.896Z,23.27
2018-09-14T09:48:31.542Z,23.28
2018-09-14T09:50:59.107Z,23.29
2018-09-14T09:53:25.745Z,23.30
2018-09-14T09:55:53.305Z,23.28
2018-09-14T09:58:21.037Z,23.26
2018-09-14T10:00:53.430Z,23.27
2018-09-14T10:03:25.822Z,23.21
2018-09-14T10:05:56.627Z,23.23
2018-09-14T10:08:24.259Z,23.24
2018-09-14T10:10:50.909Z,23.26
2018-09-14T10:13:18.436Z,23.23
2018-09-14T10:15:45.124Z,23.25
2018-09-14T10:18:11.904Z,23.26
2018-09-14T10:20:39.552Z,23.30
2018-09-14T10:23:06.178Z,23.28
2018-09-14T10:25:32.934Z,23.24
2018-09-14T10:27:59.697Z,23.20
2018-09-14T10:30:26.449Z,23.22
2018-09-14T10:32:54.526Z,23.21
2018-09-14T10:35:21.185Z,23.15
2018-09-14T10:37:47.999Z,23.22
2018-09-14T10:40:15.658Z,23.24
2018-09-14T10:42:42.423Z,23.23
2018-09-14T10:45:09.053Z,23.26
2018-09-14T10:47:35.701Z,23.30
2018-09-14T10:50:02.446Z,23.32
2018-09-14T10:52:30.040Z,23.31
2018-09-14T10:54:57.525Z,23.27
2018-09-14T10:57:24.448Z,23.27
2018-09-14T10:59:51.108Z,23.27
2018-09-14T11:02:18.740Z,23.26
2018-09-14T11:04:45.433Z,23.26
2018-09-14T11:07:12.084Z,23.28
2018-09-14T11:09:38.751Z,23.28
2018-09-14T11:12:05.734Z,23.25
2018-09-14T11:14:32.575Z,23.25
2018-09-14T11:16:59.232Z,23.26
2018-09-14T11:19:25.876Z,23.27
2018-09-14T11:21:53.225Z,23.28
2018-09-14T11:24:20.061Z,23.27
2018-09-14T11:26:47.518Z,23.27
2018-09-14T11:29:14.145Z,23.26
2018-09-14T11:31:41.754Z,23.25
2018-09-14T11:34:08.417Z,23.25
2018-09-14T11:36:35.950Z,23.26
2018-09-14T11:39:02.954Z,23.26
2018-09-14T11:41:29.606Z,23.26
2018-09-14T11:43:56.272Z,23.23
2018-09-14T11:46:23.873Z,23.26
2018-09-14T11:48:51.020Z,23.24
2018-09-14T11:51:17.665Z,23.25
2018-09-14T11:53:44.314Z,23.24
2018-09-14T11:56:11.119Z,23.24
2018-09-14T11:58:37.872Z,23.23
2018-09-14T12:01:05.507Z,23.25
2018-09-14T12:03:32.200Z,23.24
2018-09-14T12:06:00.309Z,23.24
2018-09-14T12:08:27.095Z,23.23
2018-09-14T12:10:55.122Z,23.23
2018-09-14T12:13:21.832Z,23.25
2018-09-14T12:15:49.481Z,23.26
2018-09-14T12:18:16.217Z,23.23
2018-09-14T12:20:42.863Z,23.26
2018-09-14T12:23:10.428Z,23.26
2018-09-14T12:25:38.591Z,23.27
2018-09-14T12:28:06.273Z,23.28
2018-09-14T12:30:33.969Z,23.26
2018-09-14T12:33:00.660Z,23.23
2018-09-14T12:35:28.008Z,23.24
2018-09-14T12:37:54.673Z,23.22
2018-09-14T12:40:21.361Z,23.25
2018-09-14T12:42:48.006Z,23.27
2018-09-14T12:45:14.685Z,23.29
2018-09-14T12:47:41.344Z,23.24
2018-09-14T12:50:08.028Z,23.27
2018-09-14T12:52:35.516Z,23.19
2018-09-14T12:55:02.218Z,23.23
2018-09-14T12:57:29.676Z,23.20
2018-09-14T12:59:56.392Z,23.24
2018-09-14T13:02:24.465Z,23.24
2018-09-14T13:04:52.753Z,23.25
2018-09-14T13:07:20.025Z,23.24
2018-09-14T13:09:46.709Z,23.25
2018-09-14T13:12:13.798Z,23.26
2018-09-14T13:14:40.540Z,23.27
2018-09-14T13:17:10.940Z,23.26
2018-09-14T13:19:37.587Z,23.24
2018-09-14T13:22:04.230Z,23.24
2018-09-14T13:24:31.038Z,23.26
2018-09-14T13:26:58.651Z,23.22
2018-09-14T13:29:26.439Z,23.23
2018-09-14T13:31:54.031Z,23.24
2018-09-14T13:34:21.460Z,23.24
2018-09-14T13:36:48.109Z,23.23
2018-09-14T13:39:15.741Z,23.24
2018-09-14T13:41:42.396Z,23.28
2018-09-14T13:44:09.040Z,23.35
2018-09-14T13:46:35.997Z,23.41
2018-09-14T13:49:03.630Z,23.47
2018-09-14T13:51:31.304Z,23.52
2018-09-14T13:53:58.924Z,23.60
2018-09-14T13:56:25.596Z,23.64
2018-09-14T13:58:53.541Z,23.66
2018-09-14T14:01:20.508Z,23.71
2018-09-14T14:03:47.172Z,23.74
2018-09-14T14:06:14.581Z,23.76
2018-09-14T14:08:43.479Z,23.74
2018-09-14T14:11:11.182Z,23.75
2018-09-14T14:13:38.780Z,23.73
2018-09-14T14:16:05.468Z,23.73
2018-09-14T14:18:32.117Z,23.73
2018-09-14T14:20:58.845Z,23.71
2018-09-14T14:23:25.452Z,23.73
2018-09-14T14:25:53.055Z,23.74
2018-09-14T14:28:19.741Z,23.72
2018-09-14T14:30:47.345Z,23.68
2018-09-14T14:33:13.999Z,23.71
2018-09-14T14:35:40.650Z,23.69
2018-09-14T14:38:07.296Z,23.67
2018-09-14T14:40:33.949Z,23.68
2018-09-14T14:43:00.625Z,23.67
2018-09-14T14:45:27.342Z,23.65
2018-09-14T14:47:55.015Z,23.65
2018-09-14T14:50:23.512Z,23.62
2018-09-14T14:52:51.209Z,23.62
2018-09-14T14:55:18.900Z,23.60
2018-09-14T14:57:46.477Z,23.61
2018-09-14T15:00:14.073Z,23.60
2018-09-14T15:02:41.715Z,23.60
2018-09-14T15:05:09.325Z,23.58
2018-09-14T15:07:35.973Z,23.58
2018-09-14T15:10:03.708Z,23.58
2018-09-14T15:12:30.375Z,23.59
2018-09-14T15:14:57.917Z,23.59
2018-09-14T15:17:25.376Z,23.57
2018-09-14T15:19:53.785Z,23.56
2018-09-14T15:22:21.389Z,23.55
2018-09-14T15:24:48.021Z,23.54
2018-09-14T15:27:14.946Z,23.54
2018-09-14T15:29:41.729Z,23.56
2018-09-14T15:32:08.442Z,23.56
2018-09-14T15:34:35.110Z,23.54
2018-09-14T15:37:02.792Z,23.55
2018-09-14T15:39:30.393Z,23.54
2018-09-14T15:41:58.044Z,23.52
2018-09-14T15:44:24.838Z,23.51
2018-09-14T15:46:51.616Z,23.51
2018-09-14T15:49:20.515Z,23.52
2018-09-14T15:51:48.181Z,23.52
2018-09-14T15:54:15.709Z,23.52
2018-09-14T15:56:43.349Z,23.49
2018-09-14T15:59:10.010Z,23.51
2018-09-14T16:01:37.693Z,23.51
2018-09-14T16:04:04.353Z,23.51
2018-09-14T16:06:31.937Z,23.51
2018-09-14T16:08:59.381Z,23.50
2018-09-14T16:11:26.057Z,23.51
2018-09-14T16:13:54.512Z,23.49
2018-09-14T16:16:21.196Z,23.50
2018-09-14T16:18:47.904Z,23.51
2018-09-14T16:21:14.601Z,23.50
2018-09-14T16:23:41.324Z,23.50
2018-09-14T16:26:08.817Z,23.49
2018-09-14T16:28:35.469Z,23.49
2018-09-14T16:31:02.113Z,23.45
2018-09-14T16:33:28.801Z,23.46
2018-09-14T16:35:56.972Z,23.45
2018-09-14T16:38:24.587Z,23.47
2018-09-14T16:40:51.260Z,23.47
2018-09-14T16:43:18.732Z,23.49
2018-09-14T16:45:46.225Z,23.48
2018-09-14T16:48:12.942Z,23.48
2018-09-14T16:50:40.560Z,23.50
2018-09-14T16:53:07.201Z,23.48
2018-09-14T16:55:33.848Z,23.48
2018-09-14T16:58:00.477Z,23.47
2018-09-14T17:00:27.141Z,23.45
2018-09-14T17:02:55.097Z,23.49
2018-09-14T17:05:21.774Z,23.45
2018-09-14T17:07:48.408Z,23.43
2018-09-14T17:10:15.077Z,23.45
2018-09-14T17:12:42.702Z,23.44
2018-09-14T17:15:10.234Z,23.42
2018-09-14T17:17:36.992Z,23.42
2018-09-14T17:20:03.727Z,23.43
2018-09-14T17:22:30.425Z,23.44
2018-09-14T17:24:57.076Z,23.44
2018-09-14T17:27:25.293Z,23.45
2018-09-14T17:29:52.995Z,23.41
2018-09-14T17:32:19.714Z,23.42
2018-09-14T17:34:46.372Z,23.41
2018-09-14T17:37:13.440Z,23.41
2018-09-14T17:39:40.085Z,23.40
2018-09-14T17:42:07.841Z,23.42
2018-09-14T17:44:34.559Z,23.40
2018-09-14T17:47:01.263Z,23.39
2018-09-14T17:49:28.997Z,23.38
2018-09-14T17:51:55.664Z,23.38
2018-09-14T17:54:23.665Z,23.38
2018-09-14T17:56:56.596Z,23.38
2018-09-14T17:59:24.199Z,23.35
2018-09-14T18:01:54.317Z,23.34
2018-09-14T18:04:21.947Z,23.36
2018-09-14T18:06:50.915Z,23.32
2018-09-14T18:09:17.645Z,23.32
2018-09-14T18:11:45.160Z,23.30
2018-09-14T18:16:56.672Z,23.27
2018-09-14T18:19:24.293Z,23.23
2018-09-14T18:21:51.895Z,23.27
2018-09-14T18:24:31.020Z,23.27
2018-09-14T18:27:00.381Z,23.26
2018-09-14T18:29:28.097Z,23.28
2018-09-14T18:31:55.985Z,23.24
2018-09-14T18:34:24.565Z,23.25
2018-09-14T18:36:51.930Z,23.19
2018-09-14T18:39:20.515Z,23.26
2018-09-14T18:41:55.351Z,23.26
2018-09-14T18:44:32.925Z,23.27
2018-09-14T18:47:13.134Z,23.25
2018-09-14T18:49:40.405Z,23.20
2018-09-14T18:52:07.153Z,23.23
2018-09-14T18:54:33.922Z,23.19
2018-09-14T18:57:00.721Z,23.24
2018-09-14T18:59:27.388Z,23.20
2018-09-14T19:02:01.865Z,23.20
2018-09-14T19:04:28.569Z,23.10
2018-09-14T19:06:56.204Z,23.18
2018-09-14T19:09:25.284Z,23.17
2018-09-14T19:11:53.968Z,23.12
2018-09-14T19:14:20.690Z,23.17
2018-09-14T19:16:48.282Z,23.15
2018-09-14T19:19:15.038Z,23.16
2018-09-14T19:21:42.703Z,23.16
2018-09-14T19:24:10.768Z,23.14
2018-09-14T19:26:38.320Z,23.11
2018-09-14T19:29:04.997Z,23.07
2018-09-14T19:31:32.501Z,23.15
2018-09-14T19:34:00.017Z,23.05
2018-09-14T19:36:26.993Z,23.04
2018-09-14T19:38:54.771Z,23.09
2018-09-14T19:41:23.964Z,23.07
2018-09-14T19:43:51.475Z,23.09
2018-09-14T19:46:18.172Z,23.09
2018-09-14T19:48:44.848Z,23.09
2018-09-14T19:51:12.539Z,23.08
2018-09-14T19:53:39.989Z,23.09
2018-09-14T19:56:07.710Z,23.06
2018-09-14T19:58:35.281Z,23.01
2018-09-14T20:01:01.961Z,23.04
2018-09-14T20:03:34.080Z,23.04
2018-09-14T20:06:00.716Z,22.95
2018-09-14T20:08:27.392Z,22.98
2018-09-14T20:10:55.157Z,22.99
2018-09-14T20:13:21.852Z,22.92
2018-09-14T20:15:48.722Z,22.94
2018-09-14T20:18:15.431Z,22.93
2018-09-14T20:20:53.130Z,22.98
2018-09-14T20:23:19.824Z,22.86
2018-09-14T20:25:46.772Z,22.92
2018-09-14T20:28:14.284Z,22.97
2018-09-14T20:30:41.833Z,22.97
2018-09-14T20:33:09.728Z,22.97
2018-09-14T20:35:36.446Z,22.95
2018-09-14T20:38:03.982Z,22.92
2018-09-14T20:40:30.643Z,22.90
2018-09-14T20:42:57.381Z,22.96
2018-09-14T20:45:24.590Z,22.94
2018-09-14T20:47:53.362Z,22.94
2018-09-14T20:50:20.024Z,22.96
2018-09-14T20:52:47.513Z,22.93
2018-09-14T20:55:14.983Z,22.91
2018-09-14T20:57:42.656Z,22.94
2018-09-14T21:00:09.347Z,22.92
2018-09-14T21:02:36.060Z,22.96
2018-09-14T21:05:02.718Z,23.00
2018-09-14T21:07:29.410Z,23.04
2018-09-14T21:09:56.120Z,23.01
2018-09-14T21:12:23.829Z,22.96
2018-09-14T21:14:50.556Z,22.98
2018-09-14T21:17:17.220Z,22.97
2018-09-14T21:19:44.816Z,22.97
2018-09-14T21:22:12.416Z,22.96
2018-09-14T21:24:39.077Z,23.00
2018-09-14T21:27:06.614Z,22.98
2018-09-14T21:29:33.306Z,22.99
2018-09-14T21:32:00.806Z,23.01
2018-09-14T21:34:28.408Z,23.01
2018-09-14T21:36:56.019Z,22.99
2018-09-14T21:39:24.557Z,22.98
2018-09-14T21:41:53.157Z,22.97
2018-09-14T21:44:20.732Z,22.97
2018-09-14T21:46:48.343Z,22.93
2018-09-14T21:49:15.984Z,22.95
2018-09-14T21:51:42.653Z,22.96
2018-09-14T21:54:09.321Z,22.96
2018-09-14T21:56:36.989Z,22.96
2018-09-14T21:59:04.643Z,22.96
2018-09-14T22:01:32.353Z,22.94
2018-09-14T22:04:00.813Z,22.98
2018-09-14T22:06:28.546Z,22.97
2018-09-14T22:08:56.548Z,22.94
2018-09-14T22:11:24.744Z,22.95
2018-09-14T22:13:51.687Z,22.92
2018-09-14T22:16:19.413Z,22.92
2018-09-14T22:18:47.041Z,22.96
2018-09-14T22:21:14.631Z,22.96
2018-09-14T22:23:41.280Z,22.96
2018-09-14T22:26:07.952Z,22.95
2018-09-14T22:28:34.689Z,22.98
2018-09-14T22:31:01.348Z,22.99
2018-09-14T22:33:29.027Z,22.96
2018-09-14T22:35:56.121Z,22.99
2018-09-14T22:38:23.816Z,22.95
2018-09-14T22:40:51.316Z,22.96
2018-09-14T22:43:18.881Z,23.00
2018-09-14T22:45:46.525Z,22.95
2018-09-14T22:48:13.233Z,22.94
2018-09-14T22:50:40.717Z,22.94
2018-09-14T22:53:07.372Z,22.94
2018-09-14T22:55:34.028Z,22.98
2018-09-14T22:58:00.684Z,22.96
2018-09-14T23:00:33.989Z,22.95
2018-09-14T23:03:01.474Z,22.92
2018-09-14T23:05:29.077Z,22.93
2018-09-14T23:07:55.740Z,22.95
2018-09-14T23:10:23.773Z,22.96
2018-09-14T23:12:50.432Z,22.97
2018-09-14T23:15:17.152Z,22.98
2018-09-14T23:17:43.832Z,22.97
2018-09-14T23:20:10.499Z,22.95
2018-09-14T23:22:37.180Z,22.93
2018-09-14T23:25:03.843Z,22.98
2018-09-14T23:27:30.492Z,23.00
2018-09-14T23:29:58.755Z,22.97
2018-09-14T23:32:26.481Z,22.97
2018-09-14T23:34:54.166Z,22.93
2018-09-14T23:37:21.840Z,22.99
2018-09-14T23:39:49.420Z,22.97
2018-09-14T23:42:16.908Z,22.96
2018-09-14T23:44:43.620Z,22.96
2018-09-14T23:47:11.216Z,22.97
2018-09-14T23:49:38.969Z,22.92
2018-09-14T23:52:06.611Z,22.95
2018-09-14T23:54:34.388Z,22.95
2018-09-14T23:57:01.057Z,22.93
2018-09-14T23:59:28.694Z,22.94
